Baldwinsville, NY

2:32 AM EST on January 30, 2015 (GMT -0500)
Giddings Crest | Change Station
CLOSE
Current Station
Personal Weather Station
Location: Baldwinsville, NY
Elevation: 502 ft
Nearby Weather Stations
Active Advisory: Winter Weather Advisory

Elev 502 ft 43.18 °N, 76.35 °W | Updated 5 minutes ago

Snow
Snow
27.5 °F
Feels Like 28 °F
N
2.7
Wind Variable Wind from West

Today
High -- | Low -- °F
--% Chance of Precip.
Yesterday
High -- | Low -- °F
Precip. -- in
7:23 AM 5:14 PM
Waxing Gibbous, 80% visible
Pressure 29.81 in
Visibility 3.0 miles
Clouds Mostly Cloudy 900 ft
Overcast 1500 ft
Windchill 28 °F
Dew Point 26 °F
Humidity 96%
Rainfall 0.00 in
Snow Depth Not available.
UV 0 out of 12
Pollen .10 out of 12
Air Quality Not available.
Flu Activity Not available.
SPECI KFZY 300715Z AUTO 21008KT 3SM -SN BR BKN009 OVC015 M02/M04 A2981 RMK AO2 CIG 006V011 P0000 T10171039

More Conditions Fewer Conditions

Pressure 29.81 in
Visibility 3.0 miles
Clouds Mostly Cloudy 900 ft
Overcast 1500 ft
Windchill 28 °F
Dew Point 26 °F
Humidity 96%
Rainfall 0.00 in
Snow Depth Not available.
UV 0 out of 12
Pollen .10 out of 12
Air Quality Not available.
Flu Activity Not available.
SPECI KFZY 300715Z AUTO 21008KT 3SM -SN BR BKN009 OVC015 M02/M04 A2981 RMK AO2 CIG 006V011 P0000 T10171039

More Conditions Fewer Conditions

10-Day Weather Forecast

Almanac

Astronomy

Jan. 30, 2015 Rise Set
Actual Time
Civil Twilight
Nautical Twilight
Astronomical Twilight
Moon
Length of Visible Light
Length of Day
Tomorrow will be .
, % of the Moon is Illuminated

Today's Extremes

State Highs State Lows

Community

WunderPhotos

Upload Photos

1,791,726 photos uploaded!

WunderBlogs® & News

Nearby

Air Quality

  Air Quality AQ Index Pollutant
Not available.

Snow Depth

Station Depth Elevation

Earthquake Activity

City Distance Mag. Time & Date
Minimum magnitude displayed is 2.5.

Coastal Water Temperatures

Place Temperature

Nearby Weather Stations